Time;durP1;ratioP1;P1;durP2;ratioP2;P2;SDS_P1;SDS_P2;PMS_P1;PMS_P2;Temp;Humidity;BMP_temperature;BMP_pressure;BME280_temperature;BME280_humidity;BME280_pressure;Samples;Min_cycle;Max_cycle;Signal;HPM_P1;HPM_P2
2023/09/04 00:02:03;;;;;;;8.18;5.93;;;13.30;99.90;;;;;;5078130;28;20060;-75
2023/09/04 00:04:29;;;;;;;8.05;6.05;;;13.30;99.90;;;;;;5078287;28;20048;-75
2023/09/04 00:06:54;;;;;;;7.85;6.07;;;13.30;99.90;;;;;;5077222;28;20036;-75
2023/09/04 00:09:20;;;;;;;7.30;6.20;;;13.30;99.90;;;;;;5096928;28;20085;-75
2023/09/04 00:11:52;;;;;;;6.65;5.18;;;13.20;99.90;;;;;;5096210;28;20093;-75
2023/09/04 00:14:17;;;;;;;7.68;5.03;;;13.20;99.90;;;;;;5077782;28;20043;-75
2023/09/04 00:16:43;;;;;;;8.25;5.40;;;13.20;99.90;;;;;;5078096;28;20040;-75
2023/09/04 00:19:09;;;;;;;7.05;5.18;;;13.20;99.90;;;;;;5077728;28;20091;-75
2023/09/04 00:21:34;;;;;;;6.10;4.60;;;13.20;99.90;;;;;;5077051;28;20055;-75
2023/09/04 00:24:00;;;;;;;6.70;4.95;;;13.20;99.90;;;;;;5096136;28;20040;-75
2023/09/04 00:26:26;;;;;;;6.30;4.65;;;13.10;99.90;;;;;;5096444;28;20051;-75
2023/09/04 00:28:52;;;;;;;6.57;4.88;;;13.10;99.90;;;;;;5077210;28;20047;-75
2023/09/04 00:31:18;;;;;;;6.22;4.57;;;13.10;99.90;;;;;;5077643;28;20040;-75
2023/09/04 00:33:43;;;;;;;7.13;5.20;;;13.10;99.90;;;;;;5095534;28;20098;-75
2023/09/04 00:36:09;;;;;;;7.22;5.10;;;13.00;99.90;;;;;;5095713;28;20040;-75
2023/09/04 00:38:34;;;;;;;8.45;5.60;;;13.10;99.90;;;;;;5077677;28;20395;-75
2023/09/04 00:41:00;;;;;;;9.40;5.60;;;13.10;99.90;;;;;;5076213;28;20047;-75
2023/09/04 00:43:34;;;;;;;8.07;5.70;;;13.10;99.90;;;;;;5096205;28;20507;-75
2023/09/04 00:46:00;;;;;;;10.05;6.38;;;13.10;99.90;;;;;;5077501;28;20059;-74
2023/09/04 00:48:26;;;;;;;8.00;5.45;;;13.10;99.90;;;;;;5076829;28;20047;-75
2023/09/04 00:50:51;;;;;;;6.88;5.30;;;13.10;99.90;;;;;;5095510;28;20036;-75
2023/09/04 00:53:17;;;;;;;7.85;4.85;;;13.10;99.90;;;;;;5077874;28;20036;-75
2023/09/04 00:55:43;;;;;;;6.65;5.32;;;13.10;99.90;;;;;;5094680;28;20376;-75
2023/09/04 00:58:11;;;;;;;7.30;5.45;;;13.10;99.90;;;;;;5076918;28;20399;-75
2023/09/04 01:00:37;;;;;;;7.13;5.00;;;13.10;99.90;;;;;;5095900;28;20044;-75
2023/09/04 01:03:04;;;;;;;9.98;5.45;;;13.00;99.90;;;;;;5094183;28;20151;-75
2023/09/04 01:05:32;;;;;;;7.30;4.88;;;13.00;99.90;;;;;;5094402;28;20087;-75
2023/09/04 01:07:59;;;;;;;7.57;5.38;;;13.10;99.90;;;;;;5077214;28;20142;-75
2023/09/04 01:10:39;;;;;;;7.38;4.78;;;13.10;99.90;;;;;;5094792;28;20097;-75
2023/09/04 01:13:15;;;;;;;8.52;6.00;;;13.00;99.90;;;;;;5076479;28;20047;-75
2023/09/04 01:15:41;;;;;;;8.40;5.63;;;13.00;99.90;;;;;;5095520;28;20052;-75
2023/09/04 01:18:08;;;;;;;9.45;6.20;;;13.00;99.90;;;;;;5094178;28;20052;-74
2023/09/04 01:20:33;;;;;;;10.13;6.50;;;13.00;99.90;;;;;;5095062;28;20059;-75
2023/09/04 01:22:59;;;;;;;8.48;6.20;;;13.00;99.90;;;;;;5094210;28;20399;-75
2023/09/04 01:25:49;;;;;;;9.70;6.20;;;12.90;99.90;;;;;;5095408;28;20047;-75
2023/09/04 01:28:28;;;;;;;10.95;6.60;;;13.00;99.90;;;;;;5077236;28;20472;-75
2023/09/04 01:31:04;;;;;;;11.10;7.28;;;12.90;99.90;;;;;;5075588;28;20090;-75
2023/09/04 01:33:34;;;;;;;10.70;7.28;;;12.90;99.90;;;;;;5095189;28;20093;-75
2023/09/04 01:36:04;;;;;;;10.27;7.50;;;12.90;99.90;;;;;;5076533;28;20044;-74
2023/09/04 01:38:37;;;;;;;9.80;7.50;;;12.90;99.90;;;;;;5075780;28;20044;-74
2023/09/04 01:41:05;;;;;;;10.75;7.32;;;12.90;99.90;;;;;;5076022;28;20119;-75
2023/09/04 01:43:31;;;;;;;9.93;7.30;;;12.90;99.90;;;;;;5076507;28;20071;-75
2023/09/04 01:45:57;;;;;;;14.57;8.32;;;12.90;99.90;;;;;;5093804;28;20048;-75
2023/09/04 01:48:22;;;;;;;12.38;8.07;;;12.90;99.90;;;;;;5076818;28;20119;-75
2023/09/04 01:50:48;;;;;;;10.95;7.93;;;12.90;99.90;;;;;;5076322;28;20133;-75
2023/09/04 01:53:13;;;;;;;10.43;8.13;;;12.90;99.90;;;;;;5093894;28;20040;-75
2023/09/04 01:55:39;;;;;;;11.75;8.43;;;12.90;99.90;;;;;;5076069;28;20041;-75
2023/09/04 01:58:05;;;;;;;12.05;8.38;;;12.90;99.90;;;;;;5075061;28;20052;-75
2023/09/04 02:00:30;;;;;;;11.63;8.23;;;12.90;99.90;;;;;;5076208;28;20040;-75
2023/09/04 02:02:56;;;;;;;12.52;9.10;;;12.90;99.90;;;;;;5093796;28;20127;-75
2023/09/04 02:05:21;;;;;;;10.73;7.95;;;12.90;99.90;;;;;;5075765;28;20048;-75
2023/09/04 02:07:47;;;;;;;12.98;8.48;;;13.00;99.90;;;;;;5075495;28;20085;-74
2023/09/04 02:10:16;;;;;;;13.20;8.13;;;13.00;99.90;;;;;;5076364;28;20043;-75
2023/09/04 02:12:42;;;;;;;10.30;7.38;;;13.00;99.90;;;;;;5093148;28;20067;-75
2023/09/04 02:15:08;;;;;;;10.77;8.32;;;12.90;99.90;;;;;;5075811;28;20518;-75
2023/09/04 02:17:33;;;;;;;10.80;8.02;;;12.90;99.90;;;;;;5075697;28;20040;-75
2023/09/04 02:19:59;;;;;;;10.82;8.40;;;12.90;99.90;;;;;;5074922;28;20054;-75
2023/09/04 02:22:25;;;;;;;10.48;8.30;;;12.80;99.90;;;;;;5075734;28;20138;-75
2023/09/04 02:24:50;;;;;;;10.43;7.85;;;12.80;99.90;;;;;;5075539;28;20443;-75
2023/09/04 02:27:16;;;;;;;11.38;8.65;;;12.80;99.90;;;;;;5072926;28;20113;-74
2023/09/04 02:29:42;;;;;;;11.55;8.68;;;13.00;99.90;;;;;;5055457;28;20047;-74
2023/09/04 02:32:10;;;;;;;11.18;8.32;;;12.80;99.90;;;;;;5068212;28;20048;-75
2023/09/04 02:34:36;;;;;;;9.70;7.55;;;12.70;99.90;;;;;;5092676;28;20044;-74
2023/09/04 02:37:01;;;;;;;11.65;8.10;;;12.70;99.90;;;;;;5093549;28;20407;-74
2023/09/04 02:39:27;;;;;;;10.35;7.85;;;12.70;99.90;;;;;;5093906;28;20052;-74
2023/09/04 02:41:52;;;;;;;10.30;7.55;;;12.70;99.90;;;;;;5091862;28;20036;-75
2023/09/04 02:44:18;;;;;;;11.48;7.95;;;12.70;99.90;;;;;;5093889;28;20040;-74
2023/09/04 02:46:44;;;;;;;10.82;8.50;;;12.70;99.90;;;;;;5075345;28;20043;-74
2023/09/04 02:49:09;;;;;;;13.30;7.80;;;12.60;99.90;;;;;;5092361;28;20483;-74
2023/09/04 02:51:35;;;;;;;10.30;7.80;;;12.60;99.90;;;;;;5093763;28;20036;-74
2023/09/04 02:54:00;;;;;;;11.65;7.90;;;12.60;99.90;;;;;;5074764;28;20104;-74
2023/09/04 02:56:26;;;;;;;9.65;7.45;;;12.60;99.90;;;;;;5092516;28;20032;-75
2023/09/04 02:58:52;;;;;;;10.63;7.78;;;12.60;99.90;;;;;;5092954;28;20040;-75
2023/09/04 03:01:17;;;;;;;12.27;8.43;;;12.60;99.90;;;;;;5074745;28;20048;-74
2023/09/04 03:03:43;;;;;;;10.65;8.63;;;12.50;99.90;;;;;;5074242;28;20055;-75
2023/09/04 03:06:10;;;;;;;10.32;8.05;;;12.50;99.90;;;;;;5092888;28;20040;-75
2023/09/04 03:08:35;;;;;;;10.70;7.93;;;12.50;99.90;;;;;;5074110;28;20075;-74
2023/09/04 03:11:01;;;;;;;12.80;8.60;;;12.60;99.90;;;;;;5093160;28;20076;-75
2023/09/04 03:13:27;;;;;;;10.65;8.07;;;12.60;99.90;;;;;;5093178;28;20047;-75
2023/09/04 03:15:52;;;;;;;10.35;8.18;;;12.60;99.90;;;;;;5073807;28;20408;-75
2023/09/04 03:18:18;;;;;;;11.27;8.82;;;12.60;99.90;;;;;;5074765;28;20475;-75
2023/09/04 03:20:44;;;;;;;10.85;8.50;;;12.60;99.90;;;;;;5092522;28;20044;-76
2023/09/04 03:23:09;;;;;;;12.10;8.35;;;12.60;99.90;;;;;;5091837;28;20040;-75
2023/09/04 03:25:35;;;;;;;11.30;8.73;;;12.60;99.90;;;;;;5074841;28;20036;-75
2023/09/04 03:28:01;;;;;;;11.15;8.30;;;12.50;99.90;;;;;;5063223;28;20097;-75
2023/09/04 03:30:27;;;;;;;11.43;8.68;;;12.50;99.90;;;;;;5053952;28;20044;-75
2023/09/04 03:32:53;;;;;;;11.65;8.85;;;12.50;99.90;;;;;;5084955;28;20123;-75
2023/09/04 03:35:18;;;;;;;12.10;8.95;;;12.50;99.90;;;;;;5074435;28;20127;-75
2023/09/04 03:37:44;;;;;;;12.00;8.70;;;12.50;99.90;;;;;;5074018;28;20483;-76
2023/09/04 03:40:20;;;;;;;11.13;8.82;;;12.50;99.90;;;;;;5092469;28;20496;-76
2023/09/04 03:42:46;;;;;;;11.13;8.65;;;12.50;99.90;;;;;;5073822;28;20096;-75
2023/09/04 03:45:12;;;;;;;12.73;8.43;;;12.60;99.90;;;;;;5073679;28;20146;-76
2023/09/04 03:47:38;;;;;;;12.25;8.13;;;12.40;99.90;;;;;;5077454;28;20040;-75
2023/09/04 03:50:04;;;;;;;10.80;8.10;;;12.40;99.90;;;;;;5085987;28;20118;-75
2023/09/04 03:52:30;;;;;;;11.25;8.35;;;12.40;99.90;;;;;;5073601;28;20189;-75
2023/09/04 03:54:56;;;;;;;12.15;8.65;;;12.40;99.90;;;;;;5092380;28;20505;-75
2023/09/04 03:57:22;;;;;;;12.23;8.45;;;12.40;99.90;;;;;;5092745;28;20040;-75
2023/09/04 03:59:56;;;;;;;11.93;9.48;;;12.40;99.90;;;;;;5073397;28;20085;-75
2023/09/04 04:02:24;;;;;;;12.25;8.48;;;12.40;99.90;;;;;;5073988;28;20503;-75
2023/09/04 04:04:52;;;;;;;10.55;8.30;;;12.40;99.90;;;;;;5091413;28;20051;-75
2023/09/04 04:07:18;;;;;;;11.00;8.38;;;12.40;99.90;;;;;;5074455;28;20040;-75
2023/09/04 04:09:47;;;;;;;11.48;8.25;;;12.40;99.90;;;;;;5074276;28;20047;-75
2023/09/04 04:12:14;;;;;;;13.35;8.15;;;12.50;99.90;;;;;;5091918;28;20040;-75
2023/09/04 04:14:40;;;;;;;11.35;8.07;;;12.40;99.90;;;;;;5074278;28;20499;-74
2023/09/04 04:17:09;;;;;;;11.07;7.95;;;12.50;99.90;;;;;;5092196;28;20059;-75
2023/09/04 04:19:35;;;;;;;12.85;8.02;;;12.50;99.90;;;;;;5091242;28;20101;-75
2023/09/04 04:22:00;;;;;;;10.98;7.60;;;12.50;99.90;;;;;;5073389;28;20040;-74
2023/09/04 04:24:27;;;;;;;11.00;8.13;;;12.40;99.90;;;;;;5074292;28;20506;-75
2023/09/04 04:26:53;;;;;;;10.77;7.78;;;12.40;99.90;;;;;;5073500;28;20048;-75
2023/09/04 04:29:18;;;;;;;11.57;8.13;;;12.40;99.90;;;;;;5091556;28;20051;-74
2023/09/04 04:31:45;;;;;;;11.30;8.80;;;12.40;99.90;;;;;;5074213;28;20044;-75
2023/09/04 04:34:11;;;;;;;11.77;8.60;;;12.40;99.90;;;;;;5091361;28;20495;-74
2023/09/04 04:36:37;;;;;;;12.15;8.95;;;12.40;99.90;;;;;;5074249;28;20040;-75
2023/09/04 04:39:03;;;;;;;12.15;8.30;;;12.40;99.90;;;;;;5091642;28;20361;-74
2023/09/04 04:41:31;;;;;;;12.32;8.30;;;12.50;99.90;;;;;;5076802;28;20048;-75
2023/09/04 04:43:56;;;;;;;11.15;8.93;;;12.50;99.90;;;;;;5077596;28;20521;-75
2023/09/04 04:46:22;;;;;;;10.88;8.15;;;12.50;99.90;;;;;;5094596;28;20060;-75
2023/09/04 04:48:48;;;;;;;11.73;8.23;;;12.50;99.90;;;;;;5076381;28;20032;-75
2023/09/04 04:51:14;;;;;;;11.23;8.48;;;12.50;99.90;;;;;;5096135;28;20044;-75
2023/09/04 04:53:40;;;;;;;12.35;8.07;;;12.50;99.90;;;;;;5077680;28;20387;-75
2023/09/04 04:56:05;;;;;;;11.43;8.63;;;12.50;99.90;;;;;;5076439;28;20105;-75
2023/09/04 04:58:31;;;;;;;11.82;8.50;;;12.50;99.90;;;;;;5077606;28;20101;-75
2023/09/04 05:00:57;;;;;;;10.95;8.48;;;12.50;99.90;;;;;;5076205;28;20041;-75
2023/09/04 05:03:26;;;;;;;11.30;8.73;;;12.50;99.90;;;;;;5078204;28;20050;-75
2023/09/04 05:05:51;;;;;;;11.30;8.52;;;12.60;99.90;;;;;;5095466;28;20040;-76
2023/09/04 05:08:17;;;;;;;11.07;8.35;;;12.70;99.90;;;;;;5094600;28;20062;-75
2023/09/04 05:10:43;;;;;;;10.35;7.55;;;12.70;99.90;;;;;;5077396;28;20051;-75
2023/09/04 05:13:08;;;;;;;10.13;7.85;;;12.70;99.90;;;;;;5094443;28;20052;-75
2023/09/04 05:15:34;;;;;;;10.15;7.20;;;12.70;99.90;;;;;;5094785;28;20082;-76
2023/09/04 05:18:00;;;;;;;11.98;7.50;;;12.70;99.90;;;;;;5075543;28;20120;-76
2023/09/04 05:20:25;;;;;;;10.93;7.18;;;12.60;99.90;;;;;;5077241;28;20048;-76
2023/09/04 05:22:53;;;;;;;9.95;7.97;;;12.70;99.90;;;;;;5075935;28;20082;-75
2023/09/04 05:25:19;;;;;;;10.65;8.18;;;13.80;99.90;;;;;;5095169;28;20111;-75
2023/09/04 05:27:45;;;;;;;11.77;8.13;;;12.60;99.90;;;;;;5094522;28;20048;-75
2023/09/04 05:30:11;;;;;;;10.70;7.68;;;12.70;99.90;;;;;;5076050;28;20048;-75
2023/09/04 05:32:36;;;;;;;10.35;7.95;;;12.70;99.90;;;;;;5094881;28;20036;-75
2023/09/04 05:35:02;;;;;;;9.93;7.22;;;12.80;99.90;;;;;;5094952;28;20498;-75
2023/09/04 05:37:28;;;;;;;10.70;7.13;;;12.80;99.90;;;;;;5072733;28;20044;-76
2023/09/04 05:39:54;;;;;;;10.95;7.68;;;12.90;99.90;;;;;;5074887;28;20119;-76
2023/09/04 05:42:19;;;;;;;10.60;7.30;;;12.90;99.90;;;;;;5058761;28;20476;-75
2023/09/04 05:44:45;;;;;;;9.25;6.88;;;12.90;99.90;;;;;;5055615;28;20052;-75
2023/09/04 05:47:10;;;;;;;9.30;7.68;;;12.90;99.90;;;;;;5073713;28;20035;-75
2023/09/04 05:49:36;;;;;;;11.18;7.50;;;13.00;99.90;;;;;;5055809;28;20124;-75
2023/09/04 05:52:02;;;;;;;10.05;7.22;;;13.00;99.90;;;;;;5054339;28;20055;-74
2023/09/04 05:54:28;;;;;;;10.85;7.03;;;13.10;99.90;;;;;;5055672;28;20036;-75
2023/09/04 05:56:54;;;;;;;9.77;7.55;;;13.10;99.90;;;;;;5073388;28;20135;-75
2023/09/04 05:59:19;;;;;;;10.73;7.03;;;13.30;99.90;;;;;;5054851;28;20072;-73
2023/09/04 06:01:45;;;;;;;11.15;7.10;;;13.20;99.90;;;;;;5054959;28;20056;-74
2023/09/04 06:04:11;;;;;;;10.38;7.20;;;13.30;99.90;;;;;;5072763;28;20049;-74
2023/09/04 06:06:38;;;;;;;10.90;7.32;;;13.30;99.90;;;;;;5073250;28;20043;-74
2023/09/04 06:09:06;;;;;;;10.75;7.80;;;13.30;99.90;;;;;;5050950;28;20483;-74
2023/09/04 06:11:31;;;;;;;9.98;7.03;;;13.40;99.90;;;;;;5072556;28;20090;-75
2023/09/04 06:13:57;;;;;;;11.38;7.95;;;13.40;99.90;;;;;;5054667;28;20448;-75
2023/09/04 06:16:23;;;;;;;11.93;7.28;;;13.50;99.90;;;;;;5055017;28;20036;-75
2023/09/04 06:18:48;;;;;;;10.07;7.15;;;13.60;99.90;;;;;;5072269;28;20400;-75
2023/09/04 06:21:17;;;;;;;11.15;7.32;;;13.60;99.90;;;;;;5072871;28;20495;-75
2023/09/04 06:23:45;;;;;;;9.55;7.10;;;13.70;99.90;;;;;;5056203;28;20664;-75
2023/09/04 06:26:11;;;;;;;10.70;7.03;;;13.80;99.90;;;;;;5053198;28;20074;-76
2023/09/04 06:28:36;;;;;;;11.68;7.22;;;13.90;99.90;;;;;;5054378;28;20048;-76
2023/09/04 06:31:03;;;;;;;9.65;6.50;;;14.10;99.90;;;;;;5054446;28;20048;-76
2023/09/04 06:33:33;;;;;;;11.68;7.18;;;14.20;99.90;;;;;;5054461;28;20113;-76
2023/09/04 06:36:00;;;;;;;11.20;7.30;;;14.30;99.90;;;;;;5069210;28;20044;-75
2023/09/04 06:38:26;;;;;;;11.23;7.63;;;14.40;99.90;;;;;;5070325;28;20395;-76
2023/09/04 06:40:57;;;;;;;8.88;7.18;;;14.60;99.90;;;;;;5051661;28;20051;-76
2023/09/04 06:43:27;;;;;;;11.68;7.70;;;14.70;99.90;;;;;;5072460;28;20048;-77
2023/09/04 06:45:53;;;;;;;9.75;7.07;;;14.80;99.90;;;;;;5054044;28;20051;-76
2023/09/04 06:48:18;;;;;;;9.15;7.10;;;14.90;99.90;;;;;;5071074;28;20495;-76
2023/09/04 06:50:44;;;;;;;12.43;7.95;;;15.00;99.90;;;;;;5054299;28;20403;-76
2023/09/04 06:53:10;;;;;;;12.02;7.78;;;15.00;99.90;;;;;;5072090;28;20036;-75
2023/09/04 06:55:36;;;;;;;8.93;6.68;;;15.10;99.90;;;;;;5072041;28;20037;-76
2023/09/04 06:58:02;;;;;;;8.20;6.90;;;15.20;99.90;;;;;;5071996;28;20450;-75
2023/09/04 07:00:29;;;;;;;9.75;6.38;;;15.30;99.90;;;;;;5074050;28;20079;-75
2023/09/04 07:02:54;;;;;;;9.25;7.00;;;15.40;99.90;;;;;;5060099;28;20084;-73
2023/09/04 07:05:20;;;;;;;11.57;6.97;;;15.50;99.90;;;;;;5054621;28;20044;-79
2023/09/04 07:07:47;;;;;;;9.27;7.18;;;15.60;99.90;;;;;;5084357;28;20514;-75
2023/09/04 07:10:13;;;;;;;9.13;6.80;;;15.70;99.90;;;;;;5091919;28;20377;-74
2023/09/04 07:12:40;;;;;;;11.15;7.50;;;15.70;99.90;;;;;;5074349;28;20046;-75
2023/09/04 07:15:06;;;;;;;8.93;7.22;;;15.80;99.90;;;;;;5070378;28;20782;-74
2023/09/04 07:17:32;;;;;;;8.73;6.90;;;15.90;99.90;;;;;;5080210;28;20036;-74
2023/09/04 07:19:58;;;;;;;11.63;6.63;;;16.20;99.90;;;;;;5074156;28;20043;-74
2023/09/04 07:22:24;;;;;;;10.88;6.95;;;17.20;99.90;;;;;;5086375;28;20097;-75
2023/09/04 07:24:51;;;;;;;9.15;6.15;;;18.70;99.90;;;;;;5083270;28;20397;-75
2023/09/04 07:27:17;;;;;;;7.28;5.43;;;20.10;99.90;;;;;;5051371;28;20048;-75
2023/09/04 07:29:42;;;;;;;8.85;5.47;;;21.30;99.90;;;;;;5036691;28;20048;-77
2023/09/04 07:32:08;;;;;;;7.70;5.38;;;22.40;99.90;;;;;;5070922;28;20032;-75
2023/09/04 07:34:33;;;;;;;8.18;4.80;;;23.40;99.90;;;;;;5053343;28;20056;-76
2023/09/04 07:37:02;;;;;;;6.72;5.13;;;24.40;99.90;;;;;;5069888;28;20056;-76
2023/09/04 07:39:28;;;;;;;6.75;5.15;;;25.20;99.90;;;;;;5054431;28;20389;-87
2023/09/04 07:41:56;;;;;;;18.88;6.45;;;26.00;99.90;;;;;;5069687;28;20055;-74
2023/09/04 07:44:22;;;;;;;13.68;5.80;;;26.60;99.80;;;;;;5091630;28;20083;-76
2023/09/04 07:46:47;;;;;;;7.25;4.70;;;27.30;99.70;;;;;;5092131;28;20089;-75
2023/09/04 07:49:13;;;;;;;12.70;5.20;;;27.70;98.40;;;;;;5072358;28;20123;-74
2023/09/04 07:51:39;;;;;;;6.97;4.00;;;28.20;97.10;;;;;;5053658;28;20040;-74
2023/09/04 07:54:05;;;;;;;7.65;4.32;;;28.50;95.70;;;;;;5062266;28;20368;-74
2023/09/04 07:56:31;;;;;;;6.95;4.25;;;28.80;95.90;;;;;;5072708;28;20043;-74
2023/09/04 07:58:56;;;;;;;8.18;3.90;;;29.00;95.70;;;;;;5091213;28;20388;-75
2023/09/04 08:01:22;;;;;;;4.80;3.63;;;29.40;95.40;;;;;;5074321;28;20044;-75
2023/09/04 08:03:48;;;;;;;5.20;3.58;;;29.90;93.60;;;;;;5073120;28;20037;-74
2023/09/04 08:06:18;;;;;;;5.68;3.47;;;30.10;92.70;;;;;;5064098;28;20042;-78
2023/09/04 08:08:44;;;;;;;4.80;3.38;;;30.10;93.20;;;;;;5056023;28;20043;-75
2023/09/04 08:11:10;;;;;;;5.60;2.95;;;30.60;91.50;;;;;;5071243;28;20036;-76
2023/09/04 08:13:35;;;;;;;3.88;2.70;;;30.70;91.20;;;;;;5065825;28;20075;-80
2023/09/04 08:16:01;;;;;;;4.40;3.13;;;30.70;92.00;;;;;;5070030;28;20041;-81
2023/09/04 08:18:27;;;;;;;4.97;2.70;;;30.90;90.90;;;;;;5071311;28;20690;-78
2023/09/04 08:20:52;;;;;;;3.67;2.78;;;31.00;91.50;;;;;;5062433;28;20083;-78
2023/09/04 08:23:18;;;;;;;4.45;2.80;;;31.60;90.00;;;;;;5091194;28;20051;-79
2023/09/04 08:25:43;;;;;;;4.53;3.35;;;31.70;90.50;;;;;;5077249;28;20032;-75
2023/09/04 08:28:09;;;;;;;5.82;3.38;;;31.50;90.10;;;;;;5077220;28;20181;-76
2023/09/04 08:30:35;;;;;;;4.30;3.15;;;31.50;90.60;;;;;;5095490;28;20036;-78
2023/09/04 08:33:00;;;;;;;5.25;2.78;;;31.90;90.50;;;;;;5073015;28;20056;-76
2023/09/04 08:35:28;;;;;;;4.10;2.40;;;32.50;88.60;;;;;;5074493;28;20049;-78
2023/09/04 08:37:54;;;;;;;5.43;3.05;;;32.50;89.70;;;;;;5074294;28;20052;-74
2023/09/04 08:40:20;;;;;;;4.15;2.63;;;32.50;87.80;;;;;;5075106;28;20037;-73
2023/09/04 08:42:49;;;;;;;4.13;2.80;;;32.50;86.50;;;;;;5073711;28;20457;-76
2023/09/04 08:45:17;;;;;;;4.20;2.80;;;32.50;85.80;;;;;;5074865;28;20041;-82
2023/09/04 08:47:43;;;;;;;4.00;2.72;;;32.70;86.10;;;;;;5072035;28;20135;-74
2023/09/04 08:50:11;;;;;;;5.53;2.85;;;32.40;86.80;;;;;;5074117;28;20101;-75
2023/09/04 08:52:37;;;;;;;4.45;2.50;;;32.50;87.10;;;;;;5073957;28;20193;-74
2023/09/04 08:55:07;;;;;;;4.95;3.03;;;32.40;86.20;;;;;;5072026;28;20071;-74
2023/09/04 08:57:33;;;;;;;4.05;2.72;;;32.30;86.60;;;;;;5072354;28;20127;-75
2023/09/04 09:00:00;;;;;;;4.38;2.58;;;32.20;87.40;;;;;;5071459;28;20127;-75
2023/09/04 09:02:26;;;;;;;4.35;2.70;;;32.00;86.80;;;;;;5071462;28;20056;-75
2023/09/04 09:04:52;;;;;;;3.75;2.50;;;32.20;86.80;;;;;;5073285;28;20047;-75
2023/09/04 09:07:23;;;;;;;4.13;2.30;;;32.20;86.60;;;;;;5073894;28;20392;-73
2023/09/04 09:09:50;;;;;;;4.22;2.55;;;32.40;86.30;;;;;;5073701;28;20040;-74
2023/09/04 09:12:16;;;;;;;4.82;2.60;;;32.20;85.50;;;;;;5073903;28;20105;-75
2023/09/04 09:14:42;;;;;;;4.38;2.47;;;32.10;87.20;;;;;;5072865;28;20044;-75
2023/09/04 09:17:14;;;;;;;5.50;2.50;;;32.20;85.90;;;;;;5074876;28;20080;-75
2023/09/04 09:19:41;;;;;;;6.28;2.33;;;32.20;85.20;;;;;;5073699;28;20085;-77
2023/09/04 09:22:14;;;;;;;4.63;2.20;;;32.30;85.50;;;;;;5072917;28;20466;-78
2023/09/04 09:25:00;;;;;;;3.85;2.35;;;32.50;86.30;;;;;;5073408;28;20173;-77
2023/09/04 09:27:31;;;;;;;3.67;2.30;;;32.60;85.50;;;;;;5072776;28;20484;-74
2023/09/04 09:29:59;;;;;;;3.92;2.28;;;32.50;85.70;;;;;;5073862;28;20041;-78
2023/09/04 09:32:32;;;;;;;3.40;2.50;;;32.40;85.80;;;;;;5076505;28;20143;-77
2023/09/04 09:35:00;;;;;;;3.83;2.28;;;32.60;84.40;;;;;;5094246;28;20039;-81
2023/09/04 09:37:31;;;;;;;4.13;2.55;;;32.60;85.20;;;;;;5075735;28;20040;-79
2023/09/04 09:39:58;;;;;;;3.13;2.10;;;32.60;85.20;;;;;;5050708;28;20510;-77
2023/09/04 09:42:27;;;;;;;4.13;2.17;;;32.70;85.60;;;;;;5073785;28;20072;-76
2023/09/04 09:44:53;;;;;;;3.78;2.20;;;32.80;84.60;;;;;;5056991;28;20480;-76
2023/09/04 09:47:21;;;;;;;2.97;1.80;;;33.10;82.70;;;;;;5089723;28;20052;-76
2023/09/04 09:49:46;;;;;;;5.05;2.05;;;33.10;84.10;;;;;;5073242;28;20040;-76
2023/09/04 09:52:16;;;;;;;3.42;2.10;;;33.10;84.70;;;;;;5073625;28;20191;-76
2023/09/04 09:54:43;;;;;;;3.35;2.00;;;33.70;82.20;;;;;;5058877;28;20041;-76
2023/09/04 09:57:15;;;;;;;4.43;2.38;;;33.60;82.70;;;;;;5056781;28;20123;-76
2023/09/04 09:59:48;;;;;;;4.00;1.92;;;33.70;81.00;;;;;;5066863;28;20079;-76
2023/09/04 10:02:22;;;;;;;4.20;1.85;;;33.50;81.90;;;;;;5076637;28;20091;-76
2023/09/04 10:04:48;;;;;;;3.95;2.05;;;33.80;82.70;;;;;;5072312;28;20475;-76
2023/09/04 10:07:25;;;;;;;3.15;1.75;;;33.80;81.70;;;;;;5055051;28;20044;-74
2023/09/04 10:10:11;;;;;;;5.90;2.38;;;33.80;82.00;;;;;;5052528;28;20058;-73
2023/09/04 10:13:13;;;;;;;4.35;2.05;;;33.80;81.50;;;;;;5068359;28;20060;-73
2023/09/04 10:15:42;;;;;;;4.40;1.90;;;33.70;81.60;;;;;;5071866;28;20128;-73
2023/09/04 10:18:16;;;;;;;4.43;2.10;;;33.60;81.60;;;;;;5071106;28;20143;-73
2023/09/04 10:20:42;;;;;;;4.95;2.10;;;32.90;82.20;;;;;;5073427;28;20411;-72
2023/09/04 10:23:13;;;;;;;5.05;2.00;;;32.90;81.60;;;;;;5072254;28;20044;-72
2023/09/04 10:25:49;;;;;;;3.05;1.83;;;32.70;83.10;;;;;;5052252;28;20460;-71
2023/09/04 10:28:26;;;;;;;4.38;2.15;;;32.60;83.20;;;;;;5055323;28;20137;-73
2023/09/04 10:30:55;;;;;;;4.35;2.22;;;32.60;83.80;;;;;;5068725;28;20037;-76
2023/09/04 10:33:21;;;;;;;4.35;2.05;;;32.90;82.50;;;;;;5071144;28;20135;-74
2023/09/04 10:35:47;;;;;;;4.60;2.00;;;32.70;83.50;;;;;;5070500;28;20131;-74
2023/09/04 10:38:13;;;;;;;4.20;2.08;;;32.90;84.50;;;;;;5069572;28;20048;-75
2023/09/04 10:40:40;;;;;;;3.53;2.17;;;33.20;82.40;;;;;;5071219;28;20051;-73
2023/09/04 10:43:08;;;;;;;3.67;1.80;;;33.50;81.80;;;;;;5072014;28;20052;-73
2023/09/04 10:45:34;;;;;;;3.97;2.05;;;33.40;82.00;;;;;;5071512;28;20048;-73
2023/09/04 10:48:01;;;;;;;3.15;2.38;;;33.30;83.30;;;;;;5071633;28;20119;-73
2023/09/04 10:50:37;;;;;;;3.30;1.90;;;33.30;81.70;;;;;;5073287;28;20072;-73
2023/09/04 10:53:07;;;;;;;3.40;2.10;;;32.90;83.00;;;;;;5071926;28;20044;-72
2023/09/04 10:55:36;;;;;;;4.45;2.25;;;32.80;82.60;;;;;;5071751;28;20049;-74
2023/09/04 10:58:04;;;;;;;4.18;2.55;;;32.90;82.90;;;;;;5072736;28;20050;-73
2023/09/04 11:00:37;;;;;;;3.60;2.30;;;32.70;82.30;;;;;;5072323;28;20090;-73
2023/09/04 11:03:19;;;;;;;3.28;2.20;;;32.70;82.20;;;;;;5059840;28;20124;-74
2023/09/04 11:06:06;;;;;;;3.00;2.00;;;32.70;82.80;;;;;;5055069;28;20040;-73
2023/09/04 11:08:34;;;;;;;4.60;2.10;;;32.70;83.10;;;;;;5072210;28;20040;-73
2023/09/04 11:11:01;;;;;;;3.25;2.05;;;32.50;83.60;;;;;;5071472;28;20083;-74
2023/09/04 11:13:27;;;;;;;3.85;1.80;;;32.30;84.80;;;;;;5072816;28;20403;-72
2023/09/04 11:15:57;;;;;;;3.17;1.95;;;32.50;86.90;;;;;;5070689;28;20480;-74
2023/09/04 11:18:30;;;;;;;3.85;1.98;;;32.90;84.00;;;;;;5071526;28;20040;-74
2023/09/04 11:20:56;;;;;;;4.40;2.30;;;32.80;84.60;;;;;;5071833;28;20036;-73
2023/09/04 11:23:26;;;;;;;4.53;2.40;;;32.80;83.00;;;;;;5068526;28;20040;-74
2023/09/04 11:25:52;;;;;;;3.53;2.30;;;32.70;84.20;;;;;;5065715;28;20366;-73
2023/09/04 11:28:22;;;;;;;3.33;2.05;;;33.00;83.90;;;;;;5056285;28;20029;-73
2023/09/04 11:30:59;;;;;;;4.80;2.20;;;32.80;83.70;;;;;;5032712;28;20060;-77
2023/09/04 11:33:33;;;;;;;3.28;1.70;;;32.60;83.30;;;;;;5067122;28;20072;-78
2023/09/04 11:36:03;;;;;;;3.70;1.83;;;32.60;84.80;;;;;;5071740;28;20058;-75
2023/09/04 11:38:31;;;;;;;3.25;1.65;;;32.60;82.50;;;;;;5065453;28;20044;-75
2023/09/04 11:40:57;;;;;;;3.45;2.10;;;32.60;86.50;;;;;;5090546;28;20075;-73
2023/09/04 11:43:24;;;;;;;4.32;1.90;;;32.80;83.60;;;;;;5053687;28;20079;-74
2023/09/04 11:45:57;;;;;;;3.00;1.50;;;32.90;83.50;;;;;;5056578;28;20071;-72
2023/09/04 11:48:27;;;;;;;3.55;1.42;;;33.10;82.60;;;;;;5074680;28;20044;-74
2023/09/04 11:50:54;;;;;;;3.53;1.58;;;33.10;83.60;;;;;;5060342;28;20120;-71
2023/09/04 11:53:21;;;;;;;2.90;1.42;;;33.70;84.40;;;;;;5077115;28;20040;-71
2023/09/04 11:55:47;;;;;;;3.55;1.30;;;33.90;82.00;;;;;;5053110;28;20044;-71
2023/09/04 11:58:13;;;;;;;2.33;1.45;;;34.00;81.50;;;;;;5052331;28;20549;-71
2023/09/04 12:00:42;;;;;;;2.97;1.40;;;34.00;81.30;;;;;;5068989;28;20123;-74
2023/09/04 12:03:08;;;;;;;3.00;1.40;;;33.40;80.80;;;;;;5072778;28;20518;-72
2023/09/04 12:05:35;;;;;;;4.10;1.50;;;33.50;79.70;;;;;;5078531;28;20037;-73
2023/09/04 12:08:03;;;;;;;2.75;1.50;;;33.70;80.50;;;;;;5054126;28;20040;-74
2023/09/04 12:10:28;;;;;;;2.88;1.50;;;33.30;80.90;;;;;;5057899;28;20055;-73
2023/09/04 12:12:54;;;;;;;7.78;1.90;;;33.10;82.10;;;;;;5068553;28;20040;-73
2023/09/04 12:15:30;;;;;;;4.63;1.60;;;33.50;82.10;;;;;;5070291;28;20769;-73
2023/09/04 12:17:58;;;;;;;2.95;1.58;;;34.00;80.60;;;;;;5067828;28;20713;-74
2023/09/04 12:20:23;;;;;;;2.63;1.45;;;34.00;79.10;;;;;;5050652;28;20052;-72
2023/09/04 12:22:56;;;;;;;3.15;1.50;;;33.90;81.20;;;;;;5056101;28;20077;-75
2023/09/04 12:25:25;;;;;;;3.00;1.58;;;33.80;80.10;;;;;;5071943;28;20444;-73
2023/09/04 12:27:51;;;;;;;3.30;1.63;;;33.60;81.20;;;;;;5072745;28;20052;-73
2023/09/04 12:30:20;;;;;;;3.15;1.48;;;33.60;81.00;;;;;;5054546;28;20145;-74
2023/09/04 12:32:46;;;;;;;3.05;1.45;;;33.50;80.70;;;;;;5069611;28;20032;-73
2023/09/04 12:35:12;;;;;;;3.78;1.63;;;33.30;81.70;;;;;;5053517;28;20484;-73
2023/09/04 12:37:38;;;;;;;2.58;1.45;;;33.20;83.20;;;;;;5053360;28;20041;-72
2023/09/04 12:40:05;;;;;;;3.28;1.45;;;33.50;79.10;;;;;;5051395;28;20125;-73
2023/09/04 12:42:31;;;;;;;3.38;1.50;;;33.40;79.50;;;;;;5052453;28;20119;-73
2023/09/04 12:44:57;;;;;;;2.80;1.55;;;33.10;80.70;;;;;;5052997;28;20135;-73